createdAt,value
2022-09-21T00:01:17.662Z,76.13
2022-09-21T00:03:44.966Z,76.44
2022-09-21T00:06:15.903Z,75.79
2022-09-21T00:08:43.220Z,76.09
2022-09-21T00:11:34.208Z,76.26
2022-09-21T00:14:04.542Z,76.89
2022-09-21T00:16:32.065Z,76.18
2022-09-21T00:18:59.697Z,76.50
2022-09-21T00:21:27.902Z,76.79
2022-09-21T00:23:55.000Z,77.46
2022-09-21T00:26:23.962Z,77.66
2022-09-21T00:28:59.250Z,77.83
2022-09-21T00:31:27.683Z,77.60
2022-09-21T00:33:54.853Z,78.19
2022-09-21T00:36:23.693Z,77.77
2022-09-21T00:38:52.654Z,77.22
2022-09-21T00:41:19.868Z,76.17
2022-09-21T00:43:49.526Z,75.74
2022-09-21T00:46:27.340Z,74.99
2022-09-21T00:48:54.388Z,75.13
2022-09-21T00:51:21.569Z,75.13
2022-09-21T00:53:53.192Z,74.99
2022-09-21T00:56:20.256Z,75.42
2022-09-21T00:58:50.990Z,74.99
2022-09-21T01:01:18.859Z,75.19
2022-09-21T01:03:50.894Z,75.95
2022-09-21T01:06:20.184Z,75.97
2022-09-21T01:08:52.676Z,76.01
2022-09-21T01:11:59.977Z,76.25
2022-09-21T01:14:53.343Z,75.00
2022-09-21T01:17:56.200Z,75.82
2022-09-21T01:21:11.214Z,76.21
2022-09-21T01:23:45.898Z,76.88
2022-09-21T01:26:34.504Z,77.25
2022-09-21T01:29:06.870Z,77.50
2022-09-21T01:31:41.951Z,77.81
2022-09-21T01:34:19.841Z,78.91
2022-09-21T01:36:49.879Z,78.65
2022-09-21T01:39:19.083Z,79.20
2022-09-21T01:41:47.770Z,78.93
2022-09-21T01:44:20.758Z,79.64
2022-09-21T01:46:48.756Z,79.67
2022-09-21T01:49:19.903Z,79.61
2022-09-21T01:51:54.276Z,79.58
2022-09-21T01:54:45.464Z,78.73
2022-09-21T01:57:21.197Z,78.69
2022-09-21T01:59:54.397Z,79.71
2022-09-21T02:02:44.245Z,80.03
2022-09-21T02:05:11.754Z,79.83
2022-09-21T02:07:39.576Z,79.17
2022-09-21T02:10:10.330Z,79.25
2022-09-21T02:12:37.580Z,78.57
2022-09-21T02:15:04.728Z,78.93
2022-09-21T02:17:44.197Z,78.93
2022-09-21T02:20:23.789Z,79.29
2022-09-21T02:23:17.685Z,79.34
2022-09-21T02:25:59.195Z,79.30
2022-09-21T02:28:28.995Z,79.12
2022-09-21T02:31:13.988Z,79.41
2022-09-21T02:33:59.484Z,79.33
2022-09-21T02:36:38.551Z,79.43
2022-09-21T02:39:13.625Z,79.67
2022-09-21T02:42:00.049Z,79.80
2022-09-21T02:44:45.648Z,79.31
2022-09-21T02:47:31.416Z,78.70
2022-09-21T02:50:16.380Z,79.28
2022-09-21T02:52:44.387Z,79.00
2022-09-21T02:55:13.224Z,79.47
2022-09-21T02:57:40.955Z,79.67
2022-09-21T03:00:08.441Z,80.02
2022-09-21T03:02:37.467Z,79.37
2022-09-21T03:05:05.105Z,80.35
2022-09-21T03:07:32.532Z,80.30
2022-09-21T03:09:59.188Z,80.59
2022-09-21T03:12:26.778Z,80.74
2022-09-21T03:14:53.556Z,81.37
2022-09-21T03:17:20.238Z,80.79
2022-09-21T03:19:46.934Z,80.71
2022-09-21T03:22:13.562Z,80.28
2022-09-21T03:24:46.178Z,80.39
2022-09-21T03:27:18.487Z,80.90
2022-09-21T03:29:45.840Z,80.91
2022-09-21T03:32:13.728Z,79.84
2022-09-21T03:34:40.883Z,79.99
2022-09-21T03:37:09.031Z,79.82
2022-09-21T03:39:36.662Z,80.13
2022-09-21T03:42:04.130Z,80.36
2022-09-21T03:44:30.968Z,79.92
2022-09-21T03:46:58.202Z,80.62
2022-09-21T03:49:25.159Z,80.79
2022-09-21T03:51:51.767Z,80.44
2022-09-21T03:54:18.438Z,80.80
2022-09-21T03:56:45.061Z,80.31
2022-09-21T03:59:14.321Z,80.59
2022-09-21T04:01:42.206Z,80.88
2022-09-21T04:04:09.198Z,80.79
2022-09-21T04:06:36.473Z,80.61
2022-09-21T04:09:03.553Z,81.15
2022-09-21T04:11:32.403Z,81.32
2022-09-21T04:13:59.825Z,81.08
2022-09-21T04:16:27.386Z,81.60
2022-09-21T04:18:54.467Z,81.80
2022-09-21T04:21:22.195Z,81.93
2022-09-21T04:23:49.872Z,82.00
2022-09-21T04:26:23.045Z,82.63
2022-09-21T04:28:50.646Z,83.00
2022-09-21T04:31:17.749Z,82.57
2022-09-21T04:33:44.957Z,83.18
2022-09-21T04:36:11.590Z,82.43
2022-09-21T04:38:38.323Z,82.03
2022-09-21T04:41:05.046Z,81.71
2022-09-21T04:43:31.680Z,81.34
2022-09-21T04:45:58.524Z,81.04
2022-09-21T04:48:25.109Z,80.97
2022-09-21T04:50:51.744Z,81.66
2022-09-21T04:53:18.386Z,81.58
2022-09-21T04:55:46.246Z,81.34
2022-09-21T04:58:12.959Z,81.91
2022-09-21T05:00:39.613Z,82.83
2022-09-21T05:03:06.408Z,83.45
2022-09-21T05:05:33.252Z,83.59
2022-09-21T05:07:59.969Z,83.71
2022-09-21T05:10:26.840Z,84.00
2022-09-21T05:12:53.517Z,83.49
2022-09-21T05:15:21.916Z,83.40
2022-09-21T05:17:48.622Z,83.66
2022-09-21T05:20:15.234Z,83.17
2022-09-21T05:22:41.869Z,83.98
2022-09-21T05:25:09.369Z,84.01
2022-09-21T05:27:37.460Z,83.75
2022-09-21T05:30:05.779Z,83.73
2022-09-21T05:33:17.477Z,83.31
2022-09-21T05:36:02.993Z,83.30
2022-09-21T05:38:29.967Z,83.26
2022-09-21T05:40:56.995Z,83.42
2022-09-21T05:43:23.885Z,84.33
2022-09-21T05:45:56.942Z,83.92
2022-09-21T05:48:37.323Z,83.10
2022-09-21T05:51:14.072Z,82.76
2022-09-21T05:53:52.795Z,82.78
2022-09-21T05:56:41.433Z,82.78
2022-09-21T05:59:27.987Z,82.74
2022-09-21T06:02:07.258Z,81.77
2022-09-21T06:04:34.228Z,82.70
2022-09-21T06:07:00.935Z,82.29
2022-09-21T06:09:27.912Z,81.23
2022-09-21T06:11:54.554Z,81.81
2022-09-21T06:14:25.482Z,81.66
2022-09-21T06:16:53.062Z,81.38
2022-09-21T06:19:19.869Z,81.04
2022-09-21T06:21:46.523Z,80.95
2022-09-21T06:24:13.156Z,81.12
2022-09-21T06:26:39.791Z,80.41
2022-09-21T06:29:06.541Z,80.00
2022-09-21T06:31:33.516Z,78.84
2022-09-21T06:34:00.585Z,78.74
2022-09-21T06:36:27.331Z,77.65
2022-09-21T06:38:54.143Z,78.27
2022-09-21T06:41:21.535Z,76.45
2022-09-21T06:43:48.702Z,75.79
2022-09-21T06:46:15.585Z,74.24
2022-09-21T06:48:42.399Z,73.29
2022-09-21T06:51:10.136Z,71.40
2022-09-21T06:53:36.788Z,71.34
2022-09-21T06:56:10.311Z,72.37
2022-09-21T06:58:37.686Z,71.08
2022-09-21T07:01:14.056Z,70.63
2022-09-21T07:03:42.208Z,70.37
2022-09-21T07:06:15.559Z,70.16
2022-09-21T07:11:29.452Z,69.53
2022-09-21T07:13:56.922Z,69.40
2022-09-21T07:16:24.192Z,68.23
2022-09-21T07:18:50.909Z,68.30
2022-09-21T07:21:17.555Z,67.34
2022-09-21T07:23:44.306Z,66.97
2022-09-21T07:26:13.449Z,65.37
2022-09-21T07:28:40.715Z,66.29
2022-09-21T07:31:13.955Z,66.25
2022-09-21T07:33:41.703Z,65.02
2022-09-21T07:36:12.004Z,65.62
2022-09-21T07:38:41.708Z,66.12
2022-09-21T07:41:10.391Z,65.84
2022-09-21T07:43:39.404Z,64.96
2022-09-21T07:46:11.258Z,64.68
2022-09-21T07:48:37.994Z,64.67
2022-09-21T07:51:06.750Z,64.30
2022-09-21T07:53:34.627Z,63.78
2022-09-21T07:56:03.635Z,63.75
2022-09-21T07:58:49.465Z,63.55
2022-09-21T08:01:16.212Z,61.75
2022-09-21T08:03:42.967Z,62.13
2022-09-21T08:06:09.898Z,62.89
2022-09-21T08:08:37.815Z,63.14
2022-09-21T08:11:05.702Z,61.79
2022-09-21T08:13:32.742Z,60.41
2022-09-21T08:16:03.108Z,61.20
2022-09-21T08:18:30.621Z,60.99
2022-09-21T08:21:00.222Z,60.91
2022-09-21T08:23:30.629Z,60.34
2022-09-21T08:26:07.886Z,60.25
2022-09-21T08:28:38.676Z,60.12
2022-09-21T08:31:08.658Z,60.30
2022-09-21T08:33:35.419Z,59.52
2022-09-21T08:36:04.268Z,59.52
2022-09-21T08:38:35.860Z,58.96
2022-09-21T08:41:30.120Z,58.21
2022-09-21T08:44:04.520Z,57.50
2022-09-21T08:46:34.635Z,57.32
2022-09-21T08:49:11.654Z,56.67
2022-09-21T08:51:45.244Z,57.36
2022-09-21T08:54:25.258Z,57.07
2022-09-21T08:57:05.075Z,57.42
2022-09-21T08:59:33.940Z,55.87
2022-09-21T09:02:26.668Z,55.04
2022-09-21T09:05:06.648Z,55.66
2022-09-21T09:08:10.143Z,55.74
2022-09-21T09:10:58.853Z,54.68
2022-09-21T09:13:58.947Z,55.48
2022-09-21T09:16:31.592Z,55.27
2022-09-21T09:19:09.825Z,55.57
2022-09-21T09:21:41.643Z,54.77
2022-09-21T09:24:17.390Z,53.93
2022-09-21T09:26:55.984Z,52.65
2022-09-21T09:29:49.466Z,54.22
2022-09-21T09:32:18.328Z,53.67
2022-09-21T09:35:02.441Z,54.08
2022-09-21T09:37:36.233Z,52.32
2022-09-21T09:40:03.576Z,51.84
2022-09-21T09:42:55.276Z,51.22
2022-09-21T09:45:48.397Z,50.76
2022-09-21T09:48:34.613Z,50.39
2022-09-21T09:51:01.441Z,50.44
2022-09-21T09:53:28.759Z,48.38
2022-09-21T09:55:58.586Z,49.32
2022-09-21T09:58:43.767Z,50.26
2022-09-21T10:01:37.686Z,49.30
2022-09-21T10:04:06.751Z,49.31
2022-09-21T10:06:34.058Z,49.67
2022-09-21T10:09:01.055Z,49.17
2022-09-21T10:11:38.471Z,48.48
2022-09-21T10:14:10.338Z,49.30
2022-09-21T10:16:43.791Z,48.31
2022-09-21T10:19:21.719Z,48.18
2022-09-21T10:21:52.373Z,48.77
2022-09-21T10:24:25.418Z,47.98
2022-09-21T10:26:56.040Z,47.51
2022-09-21T10:29:22.615Z,48.26
2022-09-21T10:31:57.261Z,47.08
2022-09-21T10:34:27.265Z,47.78
2022-09-21T10:36:57.216Z,46.79
2022-09-21T10:39:25.452Z,45.89
2022-09-21T10:42:05.133Z,47.29
2022-09-21T10:44:46.907Z,48.19
2022-09-21T10:47:40.831Z,47.74
2022-09-21T10:50:27.599Z,47.35
2022-09-21T10:53:11.226Z,47.32
2022-09-21T10:55:58.426Z,47.59
2022-09-21T10:58:34.223Z,46.77
2022-09-21T11:01:23.290Z,46.93
2022-09-21T11:03:55.883Z,46.35
2022-09-21T11:06:31.640Z,47.37
2022-09-21T11:09:07.638Z,48.27
2022-09-21T11:11:53.170Z,47.96
2022-09-21T11:14:42.652Z,48.68
2022-09-21T11:17:17.457Z,48.58
2022-09-21T11:20:04.853Z,48.47
2022-09-21T11:22:45.584Z,49.09
2022-09-21T11:25:36.545Z,49.30
2022-09-21T11:28:13.409Z,49.07
2022-09-21T11:30:56.900Z,49.97
2022-09-21T11:33:46.634Z,50.31
2022-09-21T11:36:33.702Z,49.53
2022-09-21T11:39:11.765Z,49.60
2022-09-21T11:41:58.966Z,50.25
2022-09-21T11:44:55.827Z,50.30
2022-09-21T11:47:45.814Z,49.36
2022-09-21T11:50:31.828Z,48.83
2022-09-21T11:53:20.696Z,47.54
2022-09-21T11:56:08.067Z,48.47
2022-09-21T11:58:45.589Z,49.67
2022-09-21T12:01:49.997Z,49.72
2022-09-21T12:04:28.790Z,49.33
2022-09-21T12:07:18.895Z,49.31
2022-09-21T12:10:07.523Z,48.85
2022-09-21T12:12:59.941Z,48.67
2022-09-21T12:15:33.155Z,47.96
2022-09-21T12:18:26.063Z,45.92
2022-09-21T12:21:11.602Z,46.17
2022-09-21T12:24:15.740Z,46.14
2022-09-21T12:26:47.753Z,46.27
2022-09-21T12:29:25.447Z,45.07
2022-09-21T12:32:02.843Z,45.52
2022-09-21T12:34:39.751Z,46.43
2022-09-21T12:37:12.392Z,45.66
2022-09-21T12:39:46.249Z,45.45
2022-09-21T12:42:20.661Z,45.16
2022-09-21T12:44:52.903Z,44.77
2022-09-21T12:47:35.628Z,43.63
2022-09-21T12:50:12.975Z,43.63
2022-09-21T12:52:40.575Z,44.34
2022-09-21T12:55:33.239Z,44.42
2022-09-21T12:58:21.497Z,44.66
2022-09-21T13:01:02.619Z,43.77
2022-09-21T13:03:43.815Z,42.46
2022-09-21T13:06:43.228Z,40.87
2022-09-21T13:09:14.805Z,40.82
2022-09-21T13:12:07.277Z,40.13
2022-09-21T13:14:37.335Z,40.31
2022-09-21T13:17:05.802Z,40.13
2022-09-21T13:19:35.793Z,40.38
2022-09-21T13:22:35.837Z,39.71
2022-09-21T13:25:22.760Z,39.65
2022-09-21T13:28:09.039Z,38.88
2022-09-21T13:31:18.478Z,38.13
2022-09-21T13:34:15.293Z,37.24
2022-09-21T13:36:43.219Z,36.36
2022-09-21T13:39:09.877Z,35.77
2022-09-21T13:41:52.150Z,34.69
2022-09-21T13:44:43.926Z,35.57
2022-09-21T13:47:12.078Z,36.19
2022-09-21T13:50:04.452Z,36.04
2022-09-21T13:52:46.442Z,36.46
2022-09-21T13:55:30.550Z,35.51
2022-09-21T13:58:04.693Z,34.89
2022-09-21T14:00:35.985Z,34.86
2022-09-21T14:03:17.018Z,37.49
2022-09-21T14:05:46.861Z,37.78
2022-09-21T14:08:16.542Z,37.13
2022-09-21T14:10:52.119Z,37.04
2022-09-21T14:13:43.808Z,36.53
2022-09-21T14:16:28.992Z,36.52
2022-09-21T14:18:56.394Z,36.93
2022-09-21T14:21:23.301Z,37.41
2022-09-21T14:24:19.611Z,38.64
2022-09-21T14:26:52.910Z,38.10
2022-09-21T14:29:41.699Z,38.03
2022-09-21T14:32:19.210Z,38.23
2022-09-21T14:34:48.677Z,38.28
2022-09-21T14:37:31.604Z,37.14
2022-09-21T14:40:03.160Z,36.80
2022-09-21T14:42:31.871Z,35.17
2022-09-21T14:45:01.321Z,34.00
2022-09-21T14:47:40.370Z,33.54
2022-09-21T14:50:32.232Z,32.09
2022-09-21T14:53:08.180Z,30.73
2022-09-21T14:55:59.702Z,30.40
2022-09-21T14:58:32.115Z,30.59
2022-09-21T15:01:37.576Z,31.74
2022-09-21T15:04:19.376Z,32.46
2022-09-21T15:07:31.577Z,33.40
2022-09-21T15:10:34.513Z,33.76
2022-09-21T15:13:04.974Z,34.90
2022-09-21T15:16:07.200Z,34.67
2022-09-21T15:18:40.883Z,35.15
2022-09-21T15:21:29.503Z,35.78
2022-09-21T15:23:56.843Z,35.63
2022-09-21T15:26:29.067Z,36.18
2022-09-21T15:29:18.331Z,36.38
2022-09-21T15:31:45.559Z,37.66
2022-09-21T15:34:15.104Z,38.37
2022-09-21T15:36:43.137Z,37.60
2022-09-21T15:39:30.098Z,37.70
2022-09-21T15:42:17.796Z,37.66
2022-09-21T15:44:48.412Z,38.37
2022-09-21T15:47:26.359Z,36.49
2022-09-21T15:49:53.901Z,36.96
2022-09-21T15:52:42.580Z,37.08
2022-09-21T15:55:21.431Z,36.80
2022-09-21T15:57:58.788Z,37.20
2022-09-21T16:00:32.251Z,37.04
2022-09-21T16:03:07.567Z,35.98
2022-09-21T16:05:47.375Z,36.46
2022-09-21T16:08:19.740Z,36.84
2022-09-21T16:10:46.552Z,36.67
2022-09-21T16:13:37.748Z,36.72
2022-09-21T16:16:10.165Z,37.48
2022-09-21T16:18:51.717Z,37.33
2022-09-21T16:21:26.324Z,37.44
2022-09-21T16:23:58.002Z,36.67
2022-09-21T16:26:35.930Z,37.23
2022-09-21T16:29:08.903Z,36.80
2022-09-21T16:31:36.149Z,37.48
2022-09-21T16:34:07.366Z,38.90
2022-09-21T16:36:36.336Z,39.13
2022-09-21T16:39:06.397Z,39.20
2022-09-21T16:41:43.148Z,40.02
2022-09-21T16:44:20.605Z,39.99
2022-09-21T16:46:51.529Z,38.25
2022-09-21T16:49:21.619Z,37.82
2022-09-21T16:51:49.889Z,37.80
2022-09-21T16:54:17.971Z,37.64
2022-09-21T16:56:46.401Z,37.14
2022-09-21T16:59:21.921Z,37.05
2022-09-21T17:01:55.378Z,37.80
2022-09-21T17:04:26.034Z,37.97
2022-09-21T17:06:54.053Z,38.21
2022-09-21T17:09:31.631Z,38.05
2022-09-21T17:12:01.271Z,38.07
2022-09-21T17:14:40.028Z,38.37
2022-09-21T17:17:18.418Z,38.45
2022-09-21T17:19:46.761Z,38.95
2022-09-21T17:22:22.306Z,39.20
2022-09-21T17:24:52.070Z,39.72
2022-09-21T17:27:26.497Z,40.20
2022-09-21T17:29:55.130Z,40.97
2022-09-21T17:32:23.959Z,41.54
2022-09-21T17:34:56.191Z,41.75
2022-09-21T17:37:24.020Z,42.27
2022-09-21T17:39:50.717Z,42.26
2022-09-21T17:42:21.012Z,43.08
2022-09-21T17:45:03.861Z,43.24
2022-09-21T17:47:33.210Z,43.33
2022-09-21T17:50:08.979Z,43.27
2022-09-21T17:52:54.440Z,43.44
2022-09-21T17:55:21.450Z,43.65
2022-09-21T17:58:02.836Z,43.39
2022-09-21T18:01:44.769Z,43.52
2022-09-21T18:04:11.781Z,43.20
2022-09-21T18:06:38.588Z,42.68
2022-09-21T18:09:05.730Z,43.93
2022-09-21T18:11:58.186Z,43.73
2022-09-21T18:14:34.657Z,43.67
2022-09-21T18:17:21.094Z,44.22
2022-09-21T18:20:15.661Z,44.69
2022-09-21T18:22:55.881Z,44.35
2022-09-21T18:25:47.388Z,44.54
2022-09-21T18:28:33.256Z,44.91
2022-09-21T18:31:15.732Z,45.56
2022-09-21T18:33:49.088Z,45.31
2022-09-21T18:36:26.852Z,45.07
2022-09-21T18:39:01.584Z,45.00
2022-09-21T18:41:46.107Z,44.89
2022-09-21T18:44:26.950Z,44.81
2022-09-21T18:47:27.863Z,45.23
2022-09-21T18:50:20.821Z,45.30
2022-09-21T18:53:02.601Z,45.53
2022-09-21T18:55:33.006Z,45.89
2022-09-21T18:58:00.885Z,45.70
2022-09-21T19:00:32.784Z,45.55
2022-09-21T19:03:23.612Z,45.83
2022-09-21T19:06:17.830Z,46.37
2022-09-21T19:09:12.542Z,46.15
2022-09-21T19:11:45.287Z,46.13
2022-09-21T19:14:32.276Z,45.50
2022-09-21T19:17:13.809Z,45.56
2022-09-21T19:20:00.791Z,46.20
2022-09-21T19:22:40.598Z,48.31
2022-09-21T19:25:34.159Z,51.14
2022-09-21T19:28:22.049Z,50.55
2022-09-21T19:30:58.295Z,49.27
2022-09-21T19:33:49.421Z,48.61
2022-09-21T19:36:17.440Z,48.79
2022-09-21T19:38:44.445Z,48.96
2022-09-21T19:41:28.962Z,49.17
2022-09-21T19:44:45.521Z,48.80
2022-09-21T19:47:19.214Z,49.15
2022-09-21T19:49:54.311Z,49.38
2022-09-21T19:52:30.662Z,49.11
2022-09-21T19:55:16.650Z,48.93
2022-09-21T19:58:02.368Z,49.06
2022-09-21T20:00:29.454Z,48.55
2022-09-21T20:03:04.839Z,48.88
2022-09-21T20:05:47.643Z,48.88
2022-09-21T20:08:24.809Z,49.23
2022-09-21T20:11:07.612Z,49.01
2022-09-21T20:13:40.688Z,49.16
2022-09-21T20:16:43.845Z,49.28
2022-09-21T20:19:36.447Z,49.10
2022-09-21T20:22:11.156Z,49.91
2022-09-21T20:24:59.885Z,50.45
2022-09-21T20:27:40.036Z,50.69
2022-09-21T20:30:15.565Z,50.68
2022-09-21T20:32:45.923Z,50.78
2022-09-21T20:35:20.261Z,50.17
2022-09-21T20:37:47.271Z,50.63
2022-09-21T20:40:15.440Z,51.46
2022-09-21T20:42:42.473Z,51.24
2022-09-21T20:45:14.094Z,51.15
2022-09-21T20:47:40.826Z,51.32
2022-09-21T20:50:12.693Z,51.03
2022-09-21T20:52:41.428Z,51.33
2022-09-21T20:55:10.837Z,52.07
2022-09-21T20:57:37.518Z,52.49
2022-09-21T21:00:06.992Z,52.41
2022-09-21T21:02:34.324Z,52.71
2022-09-21T21:05:01.041Z,52.77
2022-09-21T21:07:30.497Z,52.92
2022-09-21T21:09:58.725Z,52.82
2022-09-21T21:12:26.201Z,52.99
2022-09-21T21:14:53.016Z,53.31
2022-09-21T21:17:20.003Z,54.04
2022-09-21T21:19:46.621Z,53.84
2022-09-21T21:22:13.752Z,52.88
2022-09-21T21:24:41.973Z,52.84
2022-09-21T21:27:16.332Z,53.82
2022-09-21T21:29:50.054Z,54.21
2022-09-21T21:32:23.750Z,55.01
2022-09-21T21:34:52.653Z,55.32
2022-09-21T21:37:21.746Z,55.80
2022-09-21T21:39:48.390Z,55.79
2022-09-21T21:42:15.593Z,56.40
2022-09-21T21:44:42.399Z,56.60
2022-09-21T21:47:37.761Z,57.50
2022-09-21T21:49:57.206Z,57.54
2022-09-21T21:52:23.950Z,57.55
2022-09-21T21:54:50.832Z,57.71
2022-09-21T21:57:17.485Z,56.85
2022-09-21T21:59:44.487Z,56.44
2022-09-21T22:02:11.473Z,56.06
2022-09-21T22:04:38.716Z,55.29
2022-09-21T22:07:05.824Z,54.65
2022-09-21T22:09:32.837Z,55.62
2022-09-21T22:12:01.905Z,55.48
2022-09-21T22:14:28.861Z,54.90
2022-09-21T22:16:55.804Z,54.85
2022-09-21T22:19:22.469Z,54.53
2022-09-21T22:21:53.806Z,54.50
2022-09-21T22:24:21.720Z,53.79
2022-09-21T22:26:48.713Z,53.58
2022-09-21T22:29:17.218Z,53.52
2022-09-21T22:31:49.603Z,53.08
2022-09-21T22:34:16.921Z,53.14
2022-09-21T22:36:44.077Z,52.22
2022-09-21T22:39:12.173Z,52.16
2022-09-21T22:41:41.333Z,52.70
2022-09-21T22:44:08.943Z,52.71
2022-09-21T22:46:36.649Z,53.10
2022-09-21T22:49:03.875Z,52.87
2022-09-21T22:51:30.793Z,53.46
2022-09-21T22:53:57.967Z,54.36
2022-09-21T22:56:27.220Z,54.11
2022-09-21T22:58:56.015Z,53.85
2022-09-21T23:01:25.870Z,54.52
2022-09-21T23:03:55.796Z,54.45
2022-09-21T23:06:26.570Z,55.05
2022-09-21T23:08:56.183Z,56.07
2022-09-21T23:11:31.714Z,56.32
2022-09-21T23:13:59.341Z,57.39
2022-09-21T23:16:27.960Z,57.67
2022-09-21T23:18:54.857Z,58.11
2022-09-21T23:21:24.690Z,57.49
2022-09-21T23:23:59.863Z,58.36
2022-09-21T23:26:28.459Z,57.67
2022-09-21T23:29:00.489Z,57.18
2022-09-21T23:31:28.299Z,56.69
2022-09-21T23:33:57.753Z,56.10
2022-09-21T23:36:27.769Z,56.01
2022-09-21T23:38:55.184Z,56.15
2022-09-21T23:41:27.066Z,56.28
2022-09-21T23:43:54.476Z,56.04
2022-09-21T23:46:24.470Z,56.27
2022-09-21T23:48:51.736Z,57.28
2022-09-21T23:51:18.715Z,57.80
2022-09-21T23:53:46.035Z,58.55
2022-09-21T23:56:18.008Z,59.65
2022-09-21T23:58:45.468Z,59.75
